Terminal Aerodrome Forecast
Issued by NWS

Home | Current Version | Previous Version | Text Only | Print | Product List | Glossary On
Versions: 1 2 3 4 5 6 7 8 9 10 11 12 13 14 15 16 17 18 19 20 21 22 23 24 25 26 27 28 29 30 31 32 33 34 35 36 37 38 39 40 41
000
FTUS43 KGRB 201700
TAFRHI
TAF
KRHI 201721Z 2018/2118 18004KT 2SM BR OVC006
      TEMPO 2018/2021 4SM BR SCT006 OVC012
     FM202100 17004KT 5SM HZ OVC012
     FM210300 18004KT 4SM BR OVC008
     FM210700 18004KT 3SM -FZDZ BR OVC004
      TEMPO 2109/2113 1 1/2SM -FZDZSN OVC002
     FM211400 15008KT 4SM -FZDZSN BR OVC006=

USA.gov is the U.S. government's official web portal to all federal, state and local government web resources and services.